Time;durP1;ratioP1;P1;durP2;ratioP2;P2;SDS_P1;SDS_P2;PMS_P1;PMS_P2;Temp;Humidity;BMP_temperature;BMP_pressure;BME280_temperature;BME280_humidity;BME280_pressure;Samples;Min_cycle;Max_cycle;Signal;HPM_P1;HPM_P2
2022/06/06 00:00:07;;;;;;;5.33;4.92;;;;;;;23.52;54.80;99964.16;1844726;77;21029;-66
2022/06/06 00:02:37;;;;;;;5.58;5.08;;;;;;;23.50;54.77;99965.76;1837789;77;22016;-68
2022/06/06 00:05:05;;;;;;;7.05;5.10;;;;;;;23.48;54.83;99966.55;1823219;77;21127;-68
2022/06/06 00:07:33;;;;;;;6.92;5.40;;;;;;;23.47;54.84;99963.56;1840109;77;21037;-69
2022/06/06 00:10:00;;;;;;;6.12;5.53;;;;;;;23.46;54.88;99963.80;1823379;77;21048;-69
2022/06/06 00:12:27;;;;;;;6.75;5.72;;;;;;;23.44;54.96;99965.94;1825117;77;21601;-68
2022/06/06 00:14:54;;;;;;;6.47;5.42;;;;;;;23.43;54.93;99967.00;1838354;77;21604;-68
2022/06/06 00:17:20;;;;;;;6.53;5.45;;;;;;;23.41;55.04;99967.27;1828195;77;21142;-68
2022/06/06 00:19:47;;;;;;;7.40;6.08;;;;;;;23.40;55.01;99962.09;1824635;77;21017;-69
2022/06/06 00:22:14;;;;;;;8.05;5.50;;;;;;;23.39;55.02;99967.20;1814795;77;21061;-68
2022/06/06 00:24:40;;;;;;;6.70;5.70;;;;;;;23.36;55.10;99971.24;1836200;77;21533;-69
2022/06/06 00:27:07;;;;;;;5.97;5.47;;;;;;;23.35;55.12;99961.45;1823661;77;21112;-68
2022/06/06 00:29:35;;;;;;;5.97;5.28;;;;;;;23.33;55.13;99957.66;1767841;79;21152;-68
2022/06/06 00:34:50;;;;;;;6.35;5.75;;;;;;;23.32;55.19;99962.78;1741576;81;21015;-69
2022/06/06 00:37:27;;;;;;;6.58;5.72;;;;;;;23.29;55.20;99957.84;1738932;81;21113;-68
2022/06/06 00:39:54;;;;;;;7.30;5.97;;;;;;;23.28;55.20;99962.98;1833015;77;21536;-69
2022/06/06 00:42:35;;;;;;;6.75;5.60;;;;;;;23.27;55.22;99966.75;1780252;79;21133;-69
2022/06/06 00:45:34;;;;;;;5.92;5.37;;;;;;;23.26;55.18;99966.48;1781739;79;21070;-69
2022/06/06 00:48:18;;;;;;;6.58;5.60;;;;;;;23.26;55.23;99966.48;1770298;80;21048;-68
2022/06/06 00:50:53;;;;;;;5.95;5.35;;;;;;;23.24;55.25;99968.62;1796205;79;21057;-68
2022/06/06 00:53:26;;;;;;;6.78;6.03;;;;;;;23.22;55.26;99964.49;1786575;79;21033;-68
2022/06/06 00:55:56;;;;;;;7.07;5.77;;;;;;;23.21;55.29;99969.64;1775067;79;21764;-68
2022/06/06 00:58:24;;;;;;;6.72;5.72;;;;;;;23.19;55.33;99967.71;1786180;79;21002;-68
2022/06/06 01:00:52;;;;;;;9.50;5.25;;;;;;;23.18;55.35;99974.19;1783893;79;21025;-68
2022/06/06 01:03:23;;;;;;;6.25;5.65;;;;;;;23.16;55.39;99971.75;1766901;80;21489;-68
2022/06/06 01:05:50;;;;;;;6.87;5.62;;;;;;;23.15;55.46;99976.32;1784817;79;21018;-69
2022/06/06 01:08:19;;;;;;;6.78;5.55;;;;;;;23.12;55.43;99974.12;1814634;77;21138;-69
2022/06/06 01:10:45;;;;;;;7.80;6.15;;;;;;;23.12;55.44;99976.83;1801409;79;20982;-69
2022/06/06 01:13:12;;;;;;;7.10;5.80;;;;;;;23.12;55.48;99971.41;1753577;79;21534;-69
2022/06/06 01:15:56;;;;;;;8.10;6.17;;;;;;;23.12;55.49;99975.98;1801247;79;21050;-69
2022/06/06 01:18:50;;;;;;;6.25;5.65;;;;;;;23.12;55.52;99975.98;1755861;80;21018;-69
2022/06/06 01:21:35;;;;;;;;;;;;;;;23.10;55.53;99975.41;1783478;79;21208;-69
2022/06/06 01:24:10;;;;;;;7.03;5.75;;;;;;;23.08;55.58;99975.68;1761098;81;20169;-67
2022/06/06 01:27:13;;;;;;;8.08;5.95;;;;;;;23.06;55.65;99971.55;1830883;77;21244;-68
2022/06/06 01:29:44;;;;;;;6.87;5.87;;;;;;;23.03;55.70;99974.77;1814250;77;21545;-68
2022/06/06 01:32:14;;;;;;;6.95;6.30;;;;;;;23.02;55.73;99973.08;1829615;77;21135;-68
2022/06/06 01:34:43;;;;;;;7.03;5.67;;;;;;;23.01;55.76;99969.56;1814610;77;21067;-68
2022/06/06 01:37:30;;;;;;;7.28;6.15;;;;;;;23.00;55.82;99961.13;1840976;77;20983;-68
2022/06/06 01:39:57;;;;;;;7.12;5.70;;;;;;;23.01;55.90;99963.33;1831159;77;21112;-68
2022/06/06 01:42:32;;;;;;;6.75;5.97;;;;;;;22.99;55.90;99964.92;1780012;79;21045;-67
2022/06/06 01:45:04;;;;;;;8.53;6.33;;;;;;;22.97;55.88;99966.51;1738688;82;21053;-68
2022/06/06 01:47:40;;;;;;;7.28;6.58;;;;;;;22.98;55.88;99964.61;1724311;80;21111;-69
2022/06/06 01:50:07;;;;;;;6.92;6.22;;;;;;;22.97;55.89;99967.86;1814465;77;21009;-68
2022/06/06 01:52:58;;;;;;;6.62;5.92;;;;;;;22.98;55.90;99968.68;1820855;77;20975;-70
2022/06/06 01:55:25;;;;;;;6.60;5.97;;;;;;;22.98;55.91;99972.74;1818607;77;21081;-68
2022/06/06 01:57:57;;;;;;;6.10;5.60;;;;;;;22.97;55.92;99970.58;1814529;79;21502;-68
2022/06/06 02:00:26;;;;;;;6.30;5.72;;;;;;;22.96;55.99;99968.91;1814406;77;21722;-69
2022/06/06 02:02:53;;;;;;;6.45;5.72;;;;;;;22.96;56.02;99968.10;1828597;78;21458;-69
2022/06/06 02:05:20;;;;;;;6.85;6.20;;;;;;;22.94;56.01;99968.34;1817813;77;21522;-67
2022/06/06 02:07:47;;;;;;;6.62;6.00;;;;;;;22.95;56.02;99969.19;1810137;77;21581;-69
2022/06/06 02:10:16;;;;;;;6.78;5.80;;;;;;;22.95;56.00;99980.83;1814425;79;21104;-69
2022/06/06 02:12:43;;;;;;;6.90;5.92;;;;;;;22.95;56.04;99981.38;1775572;80;21628;-68
2022/06/06 02:15:12;;;;;;;7.35;6.03;;;;;;;22.94;56.05;99979.17;1781592;79;21015;-68
2022/06/06 02:17:39;;;;;;;7.30;5.95;;;;;;;22.95;56.05;99985.44;1775642;80;21517;-69
2022/06/06 02:20:08;;;;;;;22.55;7.37;;;;;;;22.94;56.07;99983.23;1775759;80;21058;-68
2022/06/06 02:22:35;;;;;;;6.70;5.37;;;;;;;22.95;56.09;99986.80;1783251;80;21520;-69
2022/06/06 02:25:03;;;;;;;6.30;5.70;;;;;;;22.94;56.10;99991.91;1780939;80;21948;-69
2022/06/06 02:27:30;;;;;;;6.25;5.67;;;;;;;22.94;56.07;99994.08;1846233;77;21517;-69
2022/06/06 02:29:57;;;;;;;6.65;5.15;;;;;;;22.93;56.12;99993.80;1791395;78;21058;-68
2022/06/06 02:32:23;;;;;;;6.25;5.75;;;;;;;22.94;56.11;99994.62;1856519;77;20989;-69
2022/06/06 02:34:50;;;;;;;6.67;5.65;;;;;;;22.93;56.11;99993.80;1856609;77;21489;-69
2022/06/06 02:37:17;;;;;;;6.17;5.67;;;;;;;22.94;56.12;99995.97;1773000;79;21191;-69
2022/06/06 02:39:43;;;;;;;6.15;5.55;;;;;;;22.93;56.13;99997.87;1789775;78;20991;-69
2022/06/06 02:42:10;;;;;;;6.25;5.45;;;;;;;22.94;56.22;99994.62;1780305;80;21084;-69
2022/06/06 02:44:36;;;;;;;10.53;7.55;;;;;;;22.92;56.17;99997.56;1850424;77;21005;-69
2022/06/06 02:47:04;;;;;;;7.47;5.90;;;;;;;22.92;56.17;100000.27;1841111;77;20994;-70
2022/06/06 02:49:33;;;;;;;7.85;6.35;;;;;;;22.93;56.20;99999.77;1779896;80;21145;-68
2022/06/06 02:52:02;;;;;;;8.55;5.95;;;;;;;22.92;56.19;100000.27;1779574;79;21034;-68
2022/06/06 02:54:29;;;;;;;6.58;5.72;;;;;;;22.91;56.24;99998.64;1792414;78;21019;-67
2022/06/06 02:56:56;;;;;;;6.83;5.83;;;;;;;22.92;56.27;99997.56;1790386;79;21523;-68
2022/06/06 02:59:23;;;;;;;6.10;5.60;;;;;;;22.92;56.30;99991.33;1751600;80;21005;-67
2022/06/06 03:01:51;;;;;;;6.95;6.28;;;;;;;22.92;56.30;99994.86;1758978;80;21216;-69
2022/06/06 03:04:19;;;;;;;6.60;5.87;;;;;;;22.92;56.36;99997.56;1800824;78;21021;-69
2022/06/06 03:07:12;;;;;;;6.92;6.33;;;;;;;22.92;56.38;99994.04;1784057;80;21017;-68
2022/06/06 03:09:47;;;;;;;8.15;6.22;;;;;;;22.91;56.40;99991.88;1782880;80;21561;-68
2022/06/06 03:12:59;;;;;;;6.87;5.58;;;;;;;22.91;56.44;99992.41;1751427;81;21042;-68
2022/06/06 03:15:31;;;;;;;6.33;5.83;;;;;;;22.89;56.52;100003.48;1783384;79;21135;-68
2022/06/06 03:21:09;;;;;;;6.37;5.78;;;;;;;22.87;56.66;100011.03;1855354;77;21017;-69
2022/06/06 03:23:50;;;;;;;6.47;5.95;;;;;;;22.87;56.71;100004.27;1753055;81;21204;-69
2022/06/06 03:26:49;;;;;;;6.37;5.78;;;;;;;22.86;56.79;100003.14;1810835;78;21424;-69
2022/06/06 03:29:38;;;;;;;6.45;5.12;;;;;;;22.85;56.86;100006.39;1802644;79;21709;-69
2022/06/06 03:32:39;;;;;;;7.10;6.40;;;;;;;22.84;56.86;100004.73;1808960;78;20990;-70
2022/06/06 03:35:36;;;;;;;6.62;5.90;;;;;;;22.84;56.95;100011.50;1826337;78;21500;-69
2022/06/06 03:38:14;;;;;;;6.85;6.10;;;;;;;22.85;56.96;100015.88;1783374;80;21026;-69
2022/06/06 03:41:16;;;;;;;7.28;6.15;;;;;;;22.84;57.01;100010.16;1809081;78;21056;-69
2022/06/06 03:43:57;;;;;;;6.55;6.03;;;;;;;22.84;57.13;100012.86;1830181;78;21263;-67
2022/06/06 03:46:45;;;;;;;7.30;5.90;;;;;;;22.84;57.19;100015.57;1825833;78;21528;-67
2022/06/06 03:49:26;;;;;;;6.58;5.83;;;;;;;22.86;57.30;100016.14;1804313;79;21080;-69
2022/06/06 03:52:15;;;;;;;6.62;5.92;;;;;;;22.87;57.40;100012.39;1812155;78;21030;-67
2022/06/06 03:55:04;;;;;;;6.60;5.87;;;;;;;22.88;57.46;100015.91;1764224;81;21057;-66
2022/06/06 03:57:31;;;;;;;9.00;6.00;;;;;;;22.89;57.59;100017.53;1740378;80;21859;-68
2022/06/06 04:00:01;;;;;;;6.80;6.10;;;;;;;22.90;57.65;100015.95;1830909;78;21509;-66
2022/06/06 04:02:31;;;;;;;8.88;6.53;;;;;;;22.91;57.59;100017.61;1821331;78;20982;-66
2022/06/06 04:05:06;;;;;;;7.00;5.65;;;;;;;22.94;57.61;100016.28;1822528;78;20994;-66
2022/06/06 04:07:33;;;;;;;7.10;6.45;;;;;;;22.95;57.66;100016.05;1783040;79;20998;-64
2022/06/06 04:10:01;;;;;;;6.97;5.83;;;;;;;22.97;57.66;100015.27;1837129;78;21131;-65
2022/06/06 04:13:01;;;;;;;9.03;6.60;;;;;;;22.99;57.70;100017.75;1833698;78;20982;-66
2022/06/06 04:15:42;;;;;;;6.95;6.35;;;;;;;23.01;57.65;100014.80;1815395;78;21595;-65
2022/06/06 04:18:59;;;;;;;7.20;6.08;;;;;;;23.03;57.62;100015.41;1817588;78;20983;-66
2022/06/06 04:22:00;;;;;;;6.90;6.22;;;;;;;23.04;57.62;100011.08;1823984;78;22042;-65
2022/06/06 04:25:05;;;;;;;6.47;5.80;;;;;;;23.06;57.62;100018.42;1812998;77;22054;-64
2022/06/06 04:27:50;;;;;;;7.85;6.00;;;;;;;23.08;57.46;100008.70;1820773;77;21064;-66
2022/06/06 04:30:42;;;;;;;6.25;5.62;;;;;;;23.10;57.38;100011.98;1825837;77;21026;-65
2022/06/06 04:33:19;;;;;;;6.95;6.35;;;;;;;23.11;57.29;100014.46;1781497;80;21457;-66
2022/06/06 04:36:04;;;;;;;6.10;5.58;;;;;;;23.13;57.19;100016.94;1834347;77;21089;-66
2022/06/06 04:38:42;;;;;;;6.78;5.87;;;;;;;23.16;57.16;100013.75;1833919;77;22138;-66
2022/06/06 04:41:43;;;;;;;5.67;5.17;;;;;;;23.19;57.03;100024.08;1840623;77;21005;-67
2022/06/06 04:44:21;;;;;;;6.58;5.95;;;;;;;23.21;56.88;100024.66;1821361;77;22119;-66
2022/06/06 04:47:20;;;;;;;6.42;5.67;;;;;;;23.24;56.80;100022.02;1820249;78;21056;-65
2022/06/06 04:49:48;;;;;;;6.00;5.45;;;;;;;23.26;56.71;100022.05;1820323;78;21083;-66
2022/06/06 04:52:15;;;;;;;6.60;6.00;;;;;;;23.29;56.63;100026.14;1840992;77;21141;-66
2022/06/06 04:54:43;;;;;;;6.20;5.60;;;;;;;23.31;56.58;100022.14;1833211;77;20969;-65
2022/06/06 04:57:09;;;;;;;6.28;5.67;;;;;;;23.33;56.53;100025.42;1828828;77;21116;-66
2022/06/06 04:59:36;;;;;;;6.08;5.47;;;;;;;23.35;56.42;100021.94;1830158;77;21022;-66
2022/06/06 05:02:04;;;;;;;6.40;5.90;;;;;;;23.40;56.36;100028.50;1770468;79;21483;-66
2022/06/06 05:04:31;;;;;;;5.85;5.30;;;;;;;23.42;56.34;100024.47;1775116;80;21734;-66
2022/06/06 05:07:12;;;;;;;6.08;5.58;;;;;;;23.45;56.18;100021.79;1763361;80;20993;-66
2022/06/06 05:10:25;;;;;;;5.60;5.20;;;;;;;23.48;56.02;100022.66;1782581;78;21084;-66
2022/06/06 05:13:26;;;;;;;5.40;4.90;;;;;;;23.50;56.02;100025.95;1837704;77;21025;-65
2022/06/06 05:16:13;;;;;;;6.05;5.45;;;;;;;23.52;55.79;100031.41;1840442;77;21501;-65
2022/06/06 05:19:00;;;;;;;5.33;4.83;;;;;;;23.54;55.58;100030.62;1853618;77;21498;-66
2022/06/06 05:21:53;;;;;;;7.08;4.75;;;;;;;23.56;55.20;100031.73;1822950;77;21041;-65
2022/06/06 05:24:54;;;;;;;5.45;4.95;;;;;;;23.57;54.97;100029.33;1825147;77;21017;-66
2022/06/06 05:27:58;;;;;;;5.78;4.60;;;;;;;23.60;54.87;100041.56;1756132;78;21548;-65
2022/06/06 05:30:45;;;;;;;5.12;4.62;;;;;;;23.62;54.73;100048.91;1773295;80;21474;-66
2022/06/06 05:33:17;;;;;;;4.85;4.45;;;;;;;23.63;54.50;100051.92;1809998;79;21233;-66
2022/06/06 05:36:10;;;;;;;4.80;4.40;;;;;;;23.63;54.13;100055.45;1808692;79;21469;-65
2022/06/06 05:38:42;;;;;;;4.25;3.95;;;;;;;23.64;53.93;100053.04;1785722;79;21594;-66
2022/06/06 05:41:39;;;;;;;4.50;4.10;;;;;;;23.67;53.32;100055.23;1833492;77;21069;-66
2022/06/06 05:44:20;;;;;;;3.65;3.35;;;;;;;23.68;53.13;100052.83;1782747;78;21073;-66
2022/06/06 05:46:58;;;;;;;4.62;4.05;;;;;;;23.71;53.10;100053.67;1831858;77;21067;-66
2022/06/06 05:49:39;;;;;;;4.58;4.17;;;;;;;23.73;53.01;100052.08;1823199;77;21505;-66
2022/06/06 05:52:36;;;;;;;4.87;3.67;;;;;;;23.74;52.92;100051.84;1779979;79;21065;-66
2022/06/06 05:55:32;;;;;;;3.87;3.47;;;;;;;23.77;52.71;100054.58;1819559;77;21072;-65
2022/06/06 05:58:27;;;;;;;4.22;3.83;;;;;;;23.79;52.53;100055.72;1781734;80;21009;-65
2022/06/06 06:01:17;;;;;;;6.12;3.92;;;;;;;23.80;52.47;100059.55;1846495;77;21512;-64
2022/06/06 06:04:36;;;;;;;3.85;3.55;;;;;;;23.82;52.32;100054.70;1846045;77;21018;-65
2022/06/06 06:07:31;;;;;;;4.17;3.77;;;;;;;23.85;52.19;100062.86;1829646;77;21045;-64
2022/06/06 06:10:17;;;;;;;3.83;3.52;;;;;;;23.87;52.00;100063.44;1831924;77;21022;-66
2022/06/06 06:13:21;;;;;;;4.05;3.75;;;;;;;23.87;51.96;100065.61;1764817;80;21088;-66
2022/06/06 06:15:48;;;;;;;;;;;;;;;23.89;51.83;100059.94;1829731;77;21131;-67
2022/06/06 06:18:45;;;;;;;3.87;3.58;;;;;;;23.90;51.61;100058.34;1823012;78;20162;-65
2022/06/06 06:21:19;;;;;;;3.83;3.02;;;;;;;23.91;51.46;100065.94;1845361;77;21048;-66
2022/06/06 06:23:54;;;;;;;3.80;3.50;;;;;;;23.93;51.45;100067.86;1814613;77;21532;-64
2022/06/06 06:26:21;;;;;;;3.87;3.25;;;;;;;23.94;51.33;100068.98;1804244;79;20986;-66
2022/06/06 06:28:49;;;;;;;4.03;3.62;;;;;;;23.97;51.07;100072.27;1815689;78;21013;-65
2022/06/06 06:31:51;;;;;;;4.30;3.90;;;;;;;24.00;50.99;100075.84;1813507;78;21045;-67
2022/06/06 06:34:38;;;;;;;7.60;3.50;;;;;;;24.01;51.54;100078.32;1804378;78;21002;-65
2022/06/06 06:37:30;;;;;;;6.80;3.42;;;;;;;24.05;52.14;100080.81;1741727;81;21115;-59
2022/06/06 06:40:15;;;;;;;6.40;3.42;;;;;;;24.08;52.48;100081.66;1818852;78;21026;-61
2022/06/06 06:43:08;;;;;;;4.03;3.25;;;;;;;24.13;52.81;100081.74;1794184;78;21137;-61
2022/06/06 06:45:44;;;;;;;4.40;3.90;;;;;;;24.18;52.74;100077.45;1810201;78;21022;-63
2022/06/06 06:48:15;;;;;;;8.58;3.77;;;;;;;24.23;52.88;100084.33;1818674;78;21014;-63
2022/06/06 06:50:53;;;;;;;3.95;3.55;;;;;;;24.26;53.40;100081.09;1819514;78;20993;-63
2022/06/06 06:53:31;;;;;;;3.98;3.58;;;;;;;24.30;53.12;100079.55;1819567;78;21077;-62
2022/06/06 06:56:16;;;;;;;8.78;3.92;;;;;;;24.34;52.99;100082.85;1818529;78;21942;-62
2022/06/06 06:59:08;;;;;;;6.10;3.80;;;;;;;24.39;53.07;100077.20;1807973;78;21013;-61
2022/06/06 07:11:18;;;;;;;5.58;3.22;;;;;;;24.52;51.71;100082.30;1817718;78;21144;-62
2022/06/06 07:14:05;;;;;;;5.58;3.55;;;;;;;24.55;51.53;100082.31;1826578;78;21053;-62
2022/06/06 07:16:38;;;;;;;3.67;3.37;;;;;;;24.57;51.05;100081.02;1816022;78;21013;-62
2022/06/06 07:19:20;;;;;;;4.65;3.50;;;;;;;24.59;50.71;100085.66;1821489;78;21592;-62
2022/06/06 07:21:47;;;;;;;4.00;3.50;;;;;;;24.61;50.41;100086.22;1743331;81;21065;-61
2022/06/06 07:24:20;;;;;;;3.55;3.00;;;;;;;24.62;50.09;100081.60;1830906;77;21132;-62
2022/06/06 07:26:49;;;;;;;3.87;2.80;;;;;;;24.65;50.05;100082.47;1761080;79;21018;-63
2022/06/06 07:29:18;;;;;;;3.25;3.00;;;;;;;24.67;49.91;100087.11;1758301;80;21093;-62
2022/06/06 07:32:23;;;;;;;3.10;2.60;;;;;;;24.68;49.81;100088.19;1791317;79;20990;-61
2022/06/06 07:35:14;;;;;;;4.45;3.10;;;;;;;24.71;49.84;100084.98;1759228;79;21061;-61
2022/06/06 07:38:09;;;;;;;3.50;3.20;;;;;;;24.74;49.98;100093.15;1658718;82;21173;-62
2022/06/06 07:40:56;;;;;;;5.50;3.00;;;;;;;24.76;50.04;100084.75;1779200;80;21038;-61
2022/06/06 07:43:34;;;;;;;3.55;3.05;;;;;;;24.79;50.03;100084.25;1760408;80;21088;-61
2022/06/06 07:46:42;;;;;;;6.45;3.00;;;;;;;24.81;50.24;100091.61;1753093;80;20999;-60
2022/06/06 07:49:19;;;;;;;3.22;2.92;;;;;;;24.81;50.13;100091.06;1693352;81;21027;-60
2022/06/06 07:51:57;;;;;;;3.20;3.00;;;;;;;24.84;50.20;100088.37;1755033;80;21161;-61
2022/06/06 07:54:38;;;;;;;3.10;2.80;;;;;;;24.86;50.46;100102.00;1772510;80;21078;-62
2022/06/06 07:57:22;;;;;;;5.08;3.10;;;;;;;24.89;50.53;100091.16;1752942;80;21068;-62
2022/06/06 08:00:16;;;;;;;3.00;2.70;;;;;;;24.90;50.13;100094.98;1819100;77;21025;-61
2022/06/06 08:03:15;;;;;;;6.35;2.95;;;;;;;24.92;50.07;100088.75;1769701;79;21065;-60
2022/06/06 08:06:21;;;;;;;3.77;3.17;;;;;;;24.96;50.06;100092.33;1824227;77;21690;-60
2022/06/06 08:09:17;;;;;;;3.75;3.30;;;;;;;24.98;49.97;100088.82;1823737;77;20990;-62
2022/06/06 08:12:05;;;;;;;3.35;3.05;;;;;;;25.00;49.62;100084.77;1821408;77;21053;-62
2022/06/06 08:15:18;;;;;;;3.87;2.60;;;;;;;25.03;49.69;100084.78;1824337;76;21548;-63
2022/06/06 08:18:17;;;;;;;3.30;2.67;;;;;;;25.04;49.64;100077.73;1834192;77;21036;-64
2022/06/06 08:21:02;;;;;;;5.35;2.92;;;;;;;25.06;49.54;100078.30;1770436;79;21159;-63
2022/06/06 08:23:32;;;;;;;3.17;2.90;;;;;;;25.09;49.47;100082.39;1724626;80;21132;-63
2022/06/06 08:26:01;;;;;;;5.45;3.47;;;;;;;25.09;49.53;100076.44;1758280;79;21521;-61
2022/06/06 08:28:27;;;;;;;3.47;3.17;;;;;;;25.12;49.54;100072.38;1781161;79;21069;-61
2022/06/06 08:30:54;;;;;;;3.15;2.85;;;;;;;25.13;49.59;100069.95;1771472;80;21054;-61
2022/06/06 08:33:21;;;;;;;5.67;3.12;;;;;;;25.17;49.64;100072.95;1775620;79;21141;-64
2022/06/06 08:36:10;;;;;;;3.20;3.00;;;;;;;25.19;49.00;100078.95;1761220;79;21010;-61
2022/06/06 08:39:03;;;;;;;3.42;3.12;;;;;;;25.20;49.17;100086.86;1758392;80;21085;-62
2022/06/06 08:42:05;;;;;;;;;;;;;;;25.23;49.06;100073.34;1774100;79;21077;-62
2022/06/06 08:45:11;;;;;;;4.20;2.95;;;;;;;25.25;49.18;100076.08;1761237;79;20235;-61
2022/06/06 08:48:04;;;;;;;4.25;2.77;;;;;;;25.27;48.55;100075.83;1798715;79;21143;-62
2022/06/06 08:51:05;;;;;;;6.20;3.12;;;;;;;25.28;48.23;100072.86;1804303;79;21022;-63
2022/06/06 08:54:31;;;;;;;4.42;2.83;;;;;;;25.31;47.91;100075.05;1757854;80;21108;-62
2022/06/06 08:57:33;;;;;;;3.42;2.80;;;;;;;25.33;47.53;100064.47;1784567;79;21709;-65
2022/06/06 09:00:26;;;;;;;4.10;3.30;;;;;;;25.35;47.47;100075.35;1686416;81;21081;-61
2022/06/06 09:03:08;;;;;;;5.17;2.72;;;;;;;25.37;47.40;100073.74;1748301;81;21151;-63
2022/06/06 09:06:06;;;;;;;7.03;2.85;;;;;;;25.39;47.33;100065.59;1754509;81;21022;-63
2022/06/06 09:09:09;;;;;;;7.50;3.40;;;;;;;25.42;47.02;100055.58;1770845;79;21034;-63
2022/06/06 09:12:11;;;;;;;9.75;4.20;;;;;;;25.45;47.01;100059.67;1792353;79;21447;-62
2022/06/06 09:15:23;;;;;;;6.25;3.65;;;;;;;25.47;47.19;100061.59;1749473;79;21525;-62
2022/06/06 09:18:16;;;;;;;7.40;3.42;;;;;;;25.49;47.35;100066.22;1798859;79;21762;-62
2022/06/06 09:21:21;;;;;;;8.00;4.42;;;;;;;25.50;47.51;100065.16;1783352;79;21070;-63
2022/06/06 09:24:08;;;;;;;10.05;4.03;;;;;;;25.53;47.81;100067.89;1741558;80;21018;-63
2022/06/06 09:27:07;;;;;;;10.00;4.45;;;;;;;25.54;48.06;100061.38;1781671;79;21031;-63
2022/06/06 09:30:02;;;;;;;7.65;4.03;;;;;;;25.55;47.95;100059.74;1747068;80;21018;-64
2022/06/06 09:32:44;;;;;;;14.50;4.40;;;;;;;25.57;48.13;100061.66;1767291;79;21148;-63
2022/06/06 09:35:32;;;;;;;10.25;4.72;;;;;;;25.59;48.21;100064.94;1747326;80;20993;-63
2022/06/06 09:38:40;;;;;;;7.62;4.08;;;;;;;25.60;48.42;100065.23;1761356;79;21526;-64
2022/06/06 09:41:24;;;;;;;6.00;3.62;;;;;;;25.64;48.49;100065.53;1781879;79;21040;-63
2022/06/06 09:44:14;;;;;;;7.15;3.87;;;;;;;25.66;48.64;100059.30;1765912;79;21128;-63
2022/06/06 09:47:12;;;;;;;8.90;4.67;;;;;;;25.68;48.75;100056.58;1777492;78;21088;-63
2022/06/06 09:49:59;;;;;;;5.65;3.65;;;;;;;25.71;48.79;100060.70;1827172;77;21168;-61
2022/06/06 09:53:10;;;;;;;6.50;3.85;;;;;;;25.73;48.86;100058.55;1752759;79;20994;-62
2022/06/06 09:59:38;;;;;;;4.95;3.27;;;;;;;25.79;48.81;100059.40;1761093;79;21508;-64
2022/06/06 10:02:26;;;;;;;5.87;3.42;;;;;;;25.82;48.75;100061.58;1767564;80;21700;-62
2022/06/06 10:05:21;;;;;;;5.12;3.62;;;;;;;25.83;48.65;100054.52;1767132;79;21101;-62
2022/06/06 10:08:33;;;;;;;8.28;3.17;;;;;;;25.86;48.52;100050.45;1780602;79;21081;-61
2022/06/06 10:11:32;;;;;;;5.37;3.02;;;;;;;25.88;48.36;100055.93;1831019;77;21002;-63
2022/06/06 10:14:46;;;;;;;4.80;3.35;;;;;;;25.90;48.15;100057.84;1836883;77;21446;-62
2022/06/06 10:17:34;;;;;;;4.60;3.10;;;;;;;25.94;48.07;100067.70;1828548;77;21103;-62
2022/06/06 10:20:27;;;;;;;3.80;2.58;;;;;;;25.97;47.99;100052.73;1763252;80;21050;-62
2022/06/06 10:23:11;;;;;;;3.65;2.70;;;;;;;26.00;48.02;100057.64;1711643;83;21083;-63
2022/06/06 10:26:17;;;;;;;4.75;2.72;;;;;;;26.04;47.89;100052.79;1810527;77;21522;-63
2022/06/06 10:29:04;;;;;;;9.03;3.77;;;;;;;26.07;47.70;100054.16;1834130;77;20993;-62
2022/06/06 10:32:05;;;;;;;5.58;2.80;;;;;;;26.11;47.52;100053.09;1836946;77;21185;-61
2022/06/06 10:35:09;;;;;;;7.85;2.45;;;;;;;26.15;47.26;100046.03;1838172;77;21535;-63
2022/06/06 10:39:36;;;;;;;3.72;2.70;;;;;;;26.25;46.71;100040.63;1791751;79;22497;-62
2022/06/06 10:42:57;;;;;;;3.67;2.70;;;;;;;26.27;46.52;100043.94;1694702;84;21100;-62
2022/06/06 10:45:38;;;;;;;5.40;3.00;;;;;;;26.31;46.19;100029.22;1682373;84;21115;-62
2022/06/06 10:48:22;;;;;;;2.98;2.62;;;;;;;26.37;46.09;100037.72;1691785;82;21574;-62
2022/06/06 10:51:37;;;;;;;2.90;2.50;;;;;;;26.40;45.98;100027.08;1678912;83;21037;-62
2022/06/06 10:54:30;;;;;;;3.22;2.58;;;;;;;26.44;45.82;100029.58;1694636;84;21528;-63
2022/06/06 10:57:17;;;;;;;5.17;2.60;;;;;;;26.48;45.54;100029.31;1681669;85;21067;-62
2022/06/06 11:00:15;;;;;;;5.55;2.62;;;;;;;26.53;45.30;100022.25;1666743;86;21176;-64
2022/06/06 11:03:13;;;;;;;2.60;2.40;;;;;;;26.56;45.14;100021.69;1666470;86;20985;-62
2022/06/06 11:06:14;;;;;;;3.08;2.72;;;;;;;26.59;45.04;100027.45;1659530;84;21555;-62
2022/06/06 11:09:14;;;;;;;2.83;2.62;;;;;;;26.63;44.84;100015.48;1682338;84;21075;-63
2022/06/06 11:11:57;;;;;;;6.00;2.50;;;;;;;26.66;44.71;100007.59;1692615;83;21026;-63
2022/06/06 11:14:32;;;;;;;3.17;2.72;;;;;;;26.71;44.51;100008.14;1719314;82;21239;-63
2022/06/06 11:17:33;;;;;;;2.65;2.27;;;;;;;26.74;44.31;100001.36;1699993;84;21024;-63
2022/06/06 11:20:29;;;;;;;2.58;2.35;;;;;;;26.77;44.38;100013.91;1691986;84;21088;-63
2022/06/06 11:23:21;;;;;;;3.02;2.72;;;;;;;26.81;44.19;100009.55;1687426;84;21034;-63
2022/06/06 11:26:39;;;;;;;4.05;2.50;;;;;;;26.85;43.93;100017.46;1706495;83;21648;-62
2022/06/06 11:29:36;;;;;;;4.40;2.50;;;;;;;26.88;44.02;100007.36;1686919;85;21159;-63
2022/06/06 11:32:26;;;;;;;3.67;2.65;;;;;;;26.94;43.70;99999.20;1713282;82;21030;-61
2022/06/06 11:35:08;;;;;;;4.97;2.47;;;;;;;26.98;43.52;100000.30;1723619;83;21521;-62
2022/06/06 11:38:08;;;;;;;4.33;2.60;;;;;;;27.00;43.42;100003.02;1711274;82;21145;-61
2022/06/06 11:40:58;;;;;;;6.85;2.80;;;;;;;27.04;43.40;100000.57;1691578;83;21034;-61
2022/06/06 11:44:01;;;;;;;6.50;2.65;;;;;;;27.07;43.34;99997.31;1705714;82;22040;-61
2022/06/06 11:47:05;;;;;;;4.10;2.45;;;;;;;27.11;43.21;99992.14;1670245;83;21038;-60
2022/06/06 11:50:28;;;;;;;3.15;2.80;;;;;;;27.13;43.01;99990.77;1684339;85;21105;-61
2022/06/06 11:53:33;;;;;;;3.50;2.52;;;;;;;27.16;43.06;99988.88;1687503;85;21071;-61
2022/06/06 11:56:50;;;;;;;3.17;2.55;;;;;;;27.21;43.08;99998.95;1748717;82;20997;-61
2022/06/06 12:00:10;;;;;;;4.17;3.17;;;;;;;27.24;43.04;99992.45;1733576;82;21152;-62
2022/06/06 12:03:09;;;;;;;2.67;2.47;;;;;;;27.29;43.06;99991.61;1741417;82;21029;-61
2022/06/06 12:06:06;;;;;;;2.98;2.40;;;;;;;27.33;42.97;99991.34;1744613;81;21045;-61
2022/06/06 12:08:45;;;;;;;2.70;2.50;;;;;;;27.37;42.92;99993.81;1743882;82;20994;-62
2022/06/06 12:11:51;;;;;;;2.37;2.15;;;;;;;27.41;42.93;99993.53;1745411;81;21014;-62
2022/06/06 12:14:53;;;;;;;2.58;2.37;;;;;;;27.45;42.93;99992.45;1744205;82;21093;-62
2022/06/06 12:17:52;;;;;;;3.10;2.50;;;;;;;27.49;42.90;99988.59;1729777;82;21122;-60
2022/06/06 12:21:13;;;;;;;4.05;3.00;;;;;;;27.54;43.07;99989.97;1746061;82;21010;-60
2022/06/06 12:24:18;;;;;;;3.00;2.70;;;;;;;27.58;42.89;99988.32;1748012;82;21188;-61
2022/06/06 12:27:46;;;;;;;6.42;2.77;;;;;;;27.62;42.81;99984.78;1734780;82;21077;-60
2022/06/06 12:30:48;;;;;;;3.00;2.50;;;;;;;27.68;42.71;99982.03;1742734;82;21154;-61
2022/06/06 12:33:18;;;;;;;4.33;2.95;;;;;;;27.73;42.71;99990.22;1744648;82;21002;-60
2022/06/06 12:36:05;;;;;;;6.22;2.67;;;;;;;27.79;42.64;99989.11;1734780;82;21044;-60
2022/06/06 12:38:53;;;;;;;7.00;2.87;;;;;;;27.84;42.69;99981.72;1737260;81;21081;-61
2022/06/06 12:41:49;;;;;;;4.55;2.55;;;;;;;27.91;42.65;99982.84;1733332;80;21120;-62
2022/06/06 12:44:46;;;;;;;3.83;2.40;;;;;;;27.99;42.96;99982.27;1722691;81;21159;-61
2022/06/06 12:47:37;;;;;;;3.65;3.02;;;;;;;28.06;42.96;99979.22;1747271;80;21479;-61
2022/06/06 12:50:59;;;;;;;4.90;3.08;;;;;;;28.13;43.04;99980.31;1748357;81;20994;-61
2022/06/06 12:53:56;;;;;;;5.90;2.85;;;;;;;28.20;43.13;99974.81;1747510;80;21058;-61
2022/06/06 12:56:57;;;;;;;11.20;3.50;;;;;;;28.29;43.06;99972.30;1746370;81;21073;-65
2022/06/06 12:59:53;;;;;;;7.53;2.72;;;;;;;28.38;43.20;99979.38;1751429;81;21163;-64
2022/06/06 13:02:28;;;;;;;5.17;2.70;;;;;;;28.47;43.20;99968.66;1760066;80;21018;-64
2022/06/06 13:05:48;;;;;;;3.27;2.22;;;;;;;28.55;42.82;99960.73;1752292;80;21041;-64
2022/06/06 13:08:26;;;;;;;5.17;2.30;;;;;;;28.67;42.71;99961.75;1705620;82;21086;-63
2022/06/06 13:11:41;;;;;;;6.58;2.90;;;;;;;28.80;42.42;99959.75;1736791;81;21544;-64
2022/06/06 13:14:44;;;;;;;2.42;2.22;;;;;;;28.92;42.09;99961.31;1714868;82;21156;-67